Windom, Indiana
Current Conditions -  °F | °C
As of 7:15 PM on Wednesday 26 Nov 2014 (Local Time) from KDCY Reporting Station
Overcast Overcast  
Wind Chill: -1°   Ceiling: 5000
Heat Index:   Visibility: 10mi
Dew Point: -1°   Wind: 7mph
Humidity: 81%   Direction: 290°WNW
Pressure: 30.06"   Gusts: NA
Location:  38.6262°N, 86.7615°W
Report Text: KDCY 270115Z AUTO 29006KT 10SM OVC050 02/M01 A3006 RMK AO2 T00201010
Loading
Personal Weather Stations






























Interactive Weather Map New forecast layout! Learn more

10-Day Weather Forecast

Advertisements
Track Severe Weather on mobile